sensor_id;sensor_type;location;lat;lon;timestamp;temperature;humidity
21184;DHT22;18176;49.502;11.754;2024-02-28T00:00:32;4.60;99.90
21184;DHT22;18176;49.502;11.754;2024-02-28T00:04:52;4.50;99.90
21184;DHT22;18176;49.502;11.754;2024-02-28T00:09:13;4.50;99.90
21184;DHT22;18176;49.502;11.754;2024-02-28T00:13:34;4.50;99.90
21184;DHT22;18176;49.502;11.754;2024-02-28T00:17:57;4.60;99.90
21184;DHT22;18176;49.502;11.754;2024-02-28T00:22:18;4.50;99.90
21184;DHT22;18176;49.502;11.754;2024-02-28T00:26:42;4.60;99.90
21184;DHT22;18176;49.502;11.754;2024-02-28T00:31:03;4.60;99.90
21184;DHT22;18176;49.502;11.754;2024-02-28T00:35:27;4.60;99.90
21184;DHT22;18176;49.502;11.754;2024-02-28T00:39:50;4.60;99.90
21184;DHT22;18176;49.502;11.754;2024-02-28T00:44:11;4.50;99.90
21184;DHT22;18176;49.502;11.754;2024-02-28T00:48:31;4.40;99.90
21184;DHT22;18176;49.502;11.754;2024-02-28T00:52:55;4.40;99.90
21184;DHT22;18176;49.502;11.754;2024-02-28T00:57:16;4.40;99.90
21184;DHT22;18176;49.502;11.754;2024-02-28T01:01:36;4.30;99.90
21184;DHT22;18176;49.502;11.754;2024-02-28T01:05:57;4.40;99.90
21184;DHT22;18176;49.502;11.754;2024-02-28T01:10:23;4.50;99.90
21184;DHT22;18176;49.502;11.754;2024-02-28T01:14:44;4.50;99.90
21184;DHT22;18176;49.502;11.754;2024-02-28T01:19:04;4.60;99.90
21184;DHT22;18176;49.502;11.754;2024-02-28T01:23:25;4.60;99.90
21184;DHT22;18176;49.502;11.754;2024-02-28T01:27:49;4.60;99.90
21184;DHT22;18176;49.502;11.754;2024-02-28T01:32:09;4.60;99.90
21184;DHT22;18176;49.502;11.754;2024-02-28T01:36:30;4.60;99.90
21184;DHT22;18176;49.502;11.754;2024-02-28T01:40:51;4.60;99.90
21184;DHT22;18176;49.502;11.754;2024-02-28T01:45:14;4.60;99.90
21184;DHT22;18176;49.502;11.754;2024-02-28T01:49:35;4.60;99.90
21184;DHT22;18176;49.502;11.754;2024-02-28T01:53:56;4.60;99.90
21184;DHT22;18176;49.502;11.754;2024-02-28T01:58:19;4.60;99.90
21184;DHT22;18176;49.502;11.754;2024-02-28T02:02:43;4.60;99.90
21184;DHT22;18176;49.502;11.754;2024-02-28T02:07:04;4.50;99.90
21184;DHT22;18176;49.502;11.754;2024-02-28T02:11:26;4.60;99.90
21184;DHT22;18176;49.502;11.754;2024-02-28T02:15:48;4.70;99.90
21184;DHT22;18176;49.502;11.754;2024-02-28T02:20:14;4.70;99.90
21184;DHT22;18176;49.502;11.754;2024-02-28T02:24:38;4.60;99.90
21184;DHT22;18176;49.502;11.754;2024-02-28T02:28:58;4.60;99.90
21184;DHT22;18176;49.502;11.754;2024-02-28T02:33:19;4.60;99.90
21184;DHT22;18176;49.502;11.754;2024-02-28T02:37:43;4.60;99.90
21184;DHT22;18176;49.502;11.754;2024-02-28T02:42:08;4.60;99.90
21184;DHT22;18176;49.502;11.754;2024-02-28T02:46:31;4.60;99.90
21184;DHT22;18176;49.502;11.754;2024-02-28T02:50:51;4.60;99.90
21184;DHT22;18176;49.502;11.754;2024-02-28T02:55:12;4.70;99.90
21184;DHT22;18176;49.502;11.754;2024-02-28T02:59:36;4.60;99.90
21184;DHT22;18176;49.502;11.754;2024-02-28T03:03:56;4.60;99.90
21184;DHT22;18176;49.502;11.754;2024-02-28T03:08:17;4.50;99.90
21184;DHT22;18176;49.502;11.754;2024-02-28T03:12:38;4.60;99.90
21184;DHT22;18176;49.502;11.754;2024-02-28T03:17:01;4.60;99.90
21184;DHT22;18176;49.502;11.754;2024-02-28T03:21:22;4.60;99.90
21184;DHT22;18176;49.502;11.754;2024-02-28T03:25:43;4.60;99.90
21184;DHT22;18176;49.502;11.754;2024-02-28T03:30:05;4.60;99.90
21184;DHT22;18176;49.502;11.754;2024-02-28T03:34:29;4.60;99.90
21184;DHT22;18176;49.502;11.754;2024-02-28T03:38:49;4.60;99.90
21184;DHT22;18176;49.502;11.754;2024-02-28T03:43:10;4.70;99.90
21184;DHT22;18176;49.502;11.754;2024-02-28T03:47:31;4.80;99.90
21184;DHT22;18176;49.502;11.754;2024-02-28T03:51:54;4.60;99.90
21184;DHT22;18176;49.502;11.754;2024-02-28T03:56:21;4.70;99.90
21184;DHT22;18176;49.502;11.754;2024-02-28T04:00:43;4.60;99.90
21184;DHT22;18176;49.502;11.754;2024-02-28T04:05:05;4.60;99.90
21184;DHT22;18176;49.502;11.754;2024-02-28T04:09:29;4.60;99.90
21184;DHT22;18176;49.502;11.754;2024-02-28T04:13:49;4.60;99.90
21184;DHT22;18176;49.502;11.754;2024-02-28T04:18:10;4.60;99.90
21184;DHT22;18176;49.502;11.754;2024-02-28T04:22:31;4.60;99.90
21184;DHT22;18176;49.502;11.754;2024-02-28T04:26:54;4.50;99.90
21184;DHT22;18176;49.502;11.754;2024-02-28T04:31:16;4.50;99.90
21184;DHT22;18176;49.502;11.754;2024-02-28T04:35:37;4.60;99.90
21184;DHT22;18176;49.502;11.754;2024-02-28T04:39:58;4.60;99.90
21184;DHT22;18176;49.502;11.754;2024-02-28T04:44:22;4.60;99.90
21184;DHT22;18176;49.502;11.754;2024-02-28T04:48:42;4.60;99.90
21184;DHT22;18176;49.502;11.754;2024-02-28T04:53:03;4.50;99.90
21184;DHT22;18176;49.502;11.754;2024-02-28T04:57:24;4.50;99.90
21184;DHT22;18176;49.502;11.754;2024-02-28T05:01:47;4.50;99.90
21184;DHT22;18176;49.502;11.754;2024-02-28T05:06:09;4.50;99.90
21184;DHT22;18176;49.502;11.754;2024-02-28T05:10:30;4.50;99.90
21184;DHT22;18176;49.502;11.754;2024-02-28T05:14:51;4.50;99.90
21184;DHT22;18176;49.502;11.754;2024-02-28T05:19:14;4.50;99.90
21184;DHT22;18176;49.502;11.754;2024-02-28T05:23:35;4.50;99.90
21184;DHT22;18176;49.502;11.754;2024-02-28T05:27:56;4.60;99.90
21184;DHT22;18176;49.502;11.754;2024-02-28T05:32:17;4.60;99.90
21184;DHT22;18176;49.502;11.754;2024-02-28T05:36:41;4.50;99.90
21184;DHT22;18176;49.502;11.754;2024-02-28T05:41:02;4.50;99.90
21184;DHT22;18176;49.502;11.754;2024-02-28T05:45:23;4.50;99.90
21184;DHT22;18176;49.502;11.754;2024-02-28T05:49:43;4.50;99.90
21184;DHT22;18176;49.502;11.754;2024-02-28T05:54:07;4.40;99.90
21184;DHT22;18176;49.502;11.754;2024-02-28T05:58:27;4.40;99.90
21184;DHT22;18176;49.502;11.754;2024-02-28T06:02:48;4.30;99.90
21184;DHT22;18176;49.502;11.754;2024-02-28T06:07:09;4.40;99.90
21184;DHT22;18176;49.502;11.754;2024-02-28T06:11:32;4.40;99.90
21184;DHT22;18176;49.502;11.754;2024-02-28T06:15:53;4.40;99.90
21184;DHT22;18176;49.502;11.754;2024-02-28T06:20:14;4.50;99.90
21184;DHT22;18176;49.502;11.754;2024-02-28T06:24:35;4.50;99.90
21184;DHT22;18176;49.502;11.754;2024-02-28T06:28:58;4.60;99.90
21184;DHT22;18176;49.502;11.754;2024-02-28T06:33:21;4.60;99.90
21184;DHT22;18176;49.502;11.754;2024-02-28T06:37:42;4.60;99.90
21184;DHT22;18176;49.502;11.754;2024-02-28T06:42:07;4.60;99.90
21184;DHT22;18176;49.502;11.754;2024-02-28T06:46:30;4.60;99.90
21184;DHT22;18176;49.502;11.754;2024-02-28T06:50:51;4.70;99.90
21184;DHT22;18176;49.502;11.754;2024-02-28T06:55:12;4.70;99.90
21184;DHT22;18176;49.502;11.754;2024-02-28T06:59:34;4.70;99.90
21184;DHT22;18176;49.502;11.754;2024-02-28T07:03:58;4.80;99.90
21184;DHT22;18176;49.502;11.754;2024-02-28T07:08:19;4.90;99.90
21184;DHT22;18176;49.502;11.754;2024-02-28T07:12:41;5.00;99.90
21184;DHT22;18176;49.502;11.754;2024-02-28T07:17:02;5.00;99.90
21184;DHT22;18176;49.502;11.754;2024-02-28T07:21:27;4.90;99.90
21184;DHT22;18176;49.502;11.754;2024-02-28T07:25:51;4.90;99.90
21184;DHT22;18176;49.502;11.754;2024-02-28T07:30:12;4.90;99.90
21184;DHT22;18176;49.502;11.754;2024-02-28T07:34:33;5.00;99.90
21184;DHT22;18176;49.502;11.754;2024-02-28T07:38:56;5.10;99.90
21184;DHT22;18176;49.502;11.754;2024-02-28T07:43:17;5.10;99.90
21184;DHT22;18176;49.502;11.754;2024-02-28T07:47:38;5.10;99.90
21184;DHT22;18176;49.502;11.754;2024-02-28T07:51:59;5.10;99.90
21184;DHT22;18176;49.502;11.754;2024-02-28T07:56:23;5.30;99.90
21184;DHT22;18176;49.502;11.754;2024-02-28T08:00:44;5.30;99.90
21184;DHT22;18176;49.502;11.754;2024-02-28T08:05:05;5.50;99.90
21184;DHT22;18176;49.502;11.754;2024-02-28T08:09:28;5.50;99.90
21184;DHT22;18176;49.502;11.754;2024-02-28T08:13:52;5.60;99.90
21184;DHT22;18176;49.502;11.754;2024-02-28T08:18:12;5.70;99.90
21184;DHT22;18176;49.502;11.754;2024-02-28T08:22:33;5.70;99.90
21184;DHT22;18176;49.502;11.754;2024-02-28T08:26:55;5.70;99.90
21184;DHT22;18176;49.502;11.754;2024-02-28T08:31:18;5.80;99.90
21184;DHT22;18176;49.502;11.754;2024-02-28T08:35:39;5.90;99.90
21184;DHT22;18176;49.502;11.754;2024-02-28T08:40:00;6.00;99.90
21184;DHT22;18176;49.502;11.754;2024-02-28T08:44:21;6.20;99.90
21184;DHT22;18176;49.502;11.754;2024-02-28T08:48:44;6.30;99.90
21184;DHT22;18176;49.502;11.754;2024-02-28T08:53:05;6.30;99.90
21184;DHT22;18176;49.502;11.754;2024-02-28T08:57:25;6.40;99.90
21184;DHT22;18176;49.502;11.754;2024-02-28T09:01:47;6.40;99.90
21184;DHT22;18176;49.502;11.754;2024-02-28T09:06:11;6.50;99.90
21184;DHT22;18176;49.502;11.754;2024-02-28T09:10:31;6.50;99.90
21184;DHT22;18176;49.502;11.754;2024-02-28T09:14:52;6.40;99.90
21184;DHT22;18176;49.502;11.754;2024-02-28T09:19:15;6.40;99.90
21184;DHT22;18176;49.502;11.754;2024-02-28T09:23:38;6.50;99.90
21184;DHT22;18176;49.502;11.754;2024-02-28T09:28:02;6.40;99.90
21184;DHT22;18176;49.502;11.754;2024-02-28T09:32:23;6.50;99.90
21184;DHT22;18176;49.502;11.754;2024-02-28T09:36:44;6.50;99.90
21184;DHT22;18176;49.502;11.754;2024-02-28T09:41:14;6.50;99.90
21184;DHT22;18176;49.502;11.754;2024-02-28T09:45:35;6.70;99.90
21184;DHT22;18176;49.502;11.754;2024-02-28T09:49:58;6.60;99.90
21184;DHT22;18176;49.502;11.754;2024-02-28T09:54:20;6.70;99.90
21184;DHT22;18176;49.502;11.754;2024-02-28T09:58:44;6.60;99.90
21184;DHT22;18176;49.502;11.754;2024-02-28T10:03:06;6.60;99.90
21184;DHT22;18176;49.502;11.754;2024-02-28T10:07:28;6.80;99.90
21184;DHT22;18176;49.502;11.754;2024-02-28T10:11:49;7.00;99.90
21184;DHT22;18176;49.502;11.754;2024-02-28T10:16:13;7.20;99.90
21184;DHT22;18176;49.502;11.754;2024-02-28T10:20:34;7.50;99.90
21184;DHT22;18176;49.502;11.754;2024-02-28T10:24:57;7.80;99.90
21184;DHT22;18176;49.502;11.754;2024-02-28T10:29:18;8.10;99.90
21184;DHT22;18176;49.502;11.754;2024-02-28T10:33:42;8.00;99.90
21184;DHT22;18176;49.502;11.754;2024-02-28T10:38:03;7.90;99.90
21184;DHT22;18176;49.502;11.754;2024-02-28T10:42:26;7.90;99.90
21184;DHT22;18176;49.502;11.754;2024-02-28T10:46:49;7.80;99.90
21184;DHT22;18176;49.502;11.754;2024-02-28T10:51:15;7.60;99.90
21184;DHT22;18176;49.502;11.754;2024-02-28T10:55:46;7.50;99.90
21184;DHT22;18176;49.502;11.754;2024-02-28T11:00:10;7.60;99.90
21184;DHT22;18176;49.502;11.754;2024-02-28T11:04:34;7.60;99.90
21184;DHT22;18176;49.502;11.754;2024-02-28T11:08:59;7.70;99.90
21184;DHT22;18176;49.502;11.754;2024-02-28T11:13:22;7.70;99.90
21184;DHT22;18176;49.502;11.754;2024-02-28T11:17:43;7.80;99.90
21184;DHT22;18176;49.502;11.754;2024-02-28T11:22:05;7.90;99.90
21184;DHT22;18176;49.502;11.754;2024-02-28T11:26:28;7.80;99.90
21184;DHT22;18176;49.502;11.754;2024-02-28T11:30:49;7.90;99.90
21184;DHT22;18176;49.502;11.754;2024-02-28T11:35:10;8.00;99.90
21184;DHT22;18176;49.502;11.754;2024-02-28T11:39:31;8.10;99.90
21184;DHT22;18176;49.502;11.754;2024-02-28T11:43:55;8.00;99.90
21184;DHT22;18176;49.502;11.754;2024-02-28T11:48:16;8.10;99.90
21184;DHT22;18176;49.502;11.754;2024-02-28T11:52:37;8.10;99.90
21184;DHT22;18176;49.502;11.754;2024-02-28T11:56:58;8.30;99.90
21184;DHT22;18176;49.502;11.754;2024-02-28T12:01:38;8.50;99.90
21184;DHT22;18176;49.502;11.754;2024-02-28T12:06:02;8.50;99.90
21184;DHT22;18176;49.502;11.754;2024-02-28T12:10:24;8.30;99.90
21184;DHT22;18176;49.502;11.754;2024-02-28T12:14:46;8.20;99.90
21184;DHT22;18176;49.502;11.754;2024-02-28T12:19:11;8.20;99.90
21184;DHT22;18176;49.502;11.754;2024-02-28T12:23:32;8.50;99.90
21184;DHT22;18176;49.502;11.754;2024-02-28T12:27:53;8.50;99.90
21184;DHT22;18176;49.502;11.754;2024-02-28T12:32:14;8.40;99.90
21184;DHT22;18176;49.502;11.754;2024-02-28T12:36:38;8.30;99.90
21184;DHT22;18176;49.502;11.754;2024-02-28T12:41:00;8.30;99.90
21184;DHT22;18176;49.502;11.754;2024-02-28T12:45:21;8.30;99.90
21184;DHT22;18176;49.502;11.754;2024-02-28T12:49:42;8.30;99.90
21184;DHT22;18176;49.502;11.754;2024-02-28T12:54:05;8.20;99.90
21184;DHT22;18176;49.502;11.754;2024-02-28T12:58:26;8.10;99.90
21184;DHT22;18176;49.502;11.754;2024-02-28T13:02:47;8.00;99.90
21184;DHT22;18176;49.502;11.754;2024-02-28T13:07:08;8.00;99.90
21184;DHT22;18176;49.502;11.754;2024-02-28T13:11:31;8.00;99.90
21184;DHT22;18176;49.502;11.754;2024-02-28T13:15:52;8.00;99.90
21184;DHT22;18176;49.502;11.754;2024-02-28T13:20:13;7.90;99.90
21184;DHT22;18176;49.502;11.754;2024-02-28T13:24:33;7.90;99.90
21184;DHT22;18176;49.502;11.754;2024-02-28T13:28:57;8.00;99.90
21184;DHT22;18176;49.502;11.754;2024-02-28T13:33:17;7.90;99.90
21184;DHT22;18176;49.502;11.754;2024-02-28T13:37:38;7.90;99.90
21184;DHT22;18176;49.502;11.754;2024-02-28T13:41:59;7.80;99.90
21184;DHT22;18176;49.502;11.754;2024-02-28T13:46:26;7.70;99.90
21184;DHT22;18176;49.502;11.754;2024-02-28T13:50:48;7.60;99.90
21184;DHT22;18176;49.502;11.754;2024-02-28T13:55:09;7.40;99.90
21184;DHT22;18176;49.502;11.754;2024-02-28T13:59:29;7.50;99.90
21184;DHT22;18176;49.502;11.754;2024-02-28T14:03:53;7.60;99.90
21184;DHT22;18176;49.502;11.754;2024-02-28T14:08:14;7.40;99.90
21184;DHT22;18176;49.502;11.754;2024-02-28T14:12:35;7.40;99.90
21184;DHT22;18176;49.502;11.754;2024-02-28T14:16:56;7.30;99.90
21184;DHT22;18176;49.502;11.754;2024-02-28T14:21:19;7.50;99.90
21184;DHT22;18176;49.502;11.754;2024-02-28T14:25:41;7.60;99.90
21184;DHT22;18176;49.502;11.754;2024-02-28T14:30:03;7.50;99.90
21184;DHT22;18176;49.502;11.754;2024-02-28T14:34:26;7.40;99.90
21184;DHT22;18176;49.502;11.754;2024-02-28T14:38:51;7.40;99.90
21184;DHT22;18176;49.502;11.754;2024-02-28T14:43:12;7.70;99.90
21184;DHT22;18176;49.502;11.754;2024-02-28T14:47:33;7.70;99.90
21184;DHT22;18176;49.502;11.754;2024-02-28T14:51:54;7.80;99.90
21184;DHT22;18176;49.502;11.754;2024-02-28T14:56:17;7.90;99.90
21184;DHT22;18176;49.502;11.754;2024-02-28T15:00:38;8.00;99.90
21184;DHT22;18176;49.502;11.754;2024-02-28T15:04:58;8.10;99.90
21184;DHT22;18176;49.502;11.754;2024-02-28T15:09:22;7.90;99.90
21184;DHT22;18176;49.502;11.754;2024-02-28T15:13:45;7.60;99.90
21184;DHT22;18176;49.502;11.754;2024-02-28T15:18:06;7.60;99.90
21184;DHT22;18176;49.502;11.754;2024-02-28T15:22:27;8.30;99.90
21184;DHT22;18176;49.502;11.754;2024-02-28T15:26:48;9.70;99.90
21184;DHT22;18176;49.502;11.754;2024-02-28T15:31:12;10.90;99.90
21184;DHT22;18176;49.502;11.754;2024-02-28T15:35:34;11.50;99.90
21184;DHT22;18176;49.502;11.754;2024-02-28T15:39:57;11.80;99.90
21184;DHT22;18176;49.502;11.754;2024-02-28T15:44:18;11.90;99.90
21184;DHT22;18176;49.502;11.754;2024-02-28T15:48:41;12.10;99.90
21184;DHT22;18176;49.502;11.754;2024-02-28T15:53:02;11.90;99.90
21184;DHT22;18176;49.502;11.754;2024-02-28T15:57:24;11.40;99.90
21184;DHT22;18176;49.502;11.754;2024-02-28T16:01:44;11.40;99.90
21184;DHT22;18176;49.502;11.754;2024-02-28T16:06:08;11.40;99.90
21184;DHT22;18176;49.502;11.754;2024-02-28T16:10:29;11.30;99.90
21184;DHT22;18176;49.502;11.754;2024-02-28T16:14:50;11.40;99.90
21184;DHT22;18176;49.502;11.754;2024-02-28T16:19:11;11.00;99.90
21184;DHT22;18176;49.502;11.754;2024-02-28T16:23:45;10.40;99.90
21184;DHT22;18176;49.502;11.754;2024-02-28T16:28:06;9.90;99.90
21184;DHT22;18176;49.502;11.754;2024-02-28T16:32:27;9.20;99.90
21184;DHT22;18176;49.502;11.754;2024-02-28T16:36:48;8.70;99.90
21184;DHT22;18176;49.502;11.754;2024-02-28T16:41:11;8.20;99.90
21184;DHT22;18176;49.502;11.754;2024-02-28T16:45:32;7.60;99.90
21184;DHT22;18176;49.502;11.754;2024-02-28T16:49:55;7.20;99.90
21184;DHT22;18176;49.502;11.754;2024-02-28T16:54:16;6.80;99.90
21184;DHT22;18176;49.502;11.754;2024-02-28T16:58:40;6.40;99.90
21184;DHT22;18176;49.502;11.754;2024-02-28T17:03:01;6.10;99.90
21184;DHT22;18176;49.502;11.754;2024-02-28T17:07:22;5.80;99.90
21184;DHT22;18176;49.502;11.754;2024-02-28T17:11:43;5.50;99.90
21184;DHT22;18176;49.502;11.754;2024-02-28T17:16:06;5.20;99.90
21184;DHT22;18176;49.502;11.754;2024-02-28T17:20:27;5.00;99.90
21184;DHT22;18176;49.502;11.754;2024-02-28T17:24:48;4.80;99.90
21184;DHT22;18176;49.502;11.754;2024-02-28T17:29:09;4.60;99.90
21184;DHT22;18176;49.502;11.754;2024-02-28T17:33:32;4.40;99.90
21184;DHT22;18176;49.502;11.754;2024-02-28T17:37:53;4.30;99.90
21184;DHT22;18176;49.502;11.754;2024-02-28T17:42:13;4.20;99.90
21184;DHT22;18176;49.502;11.754;2024-02-28T17:46:34;4.00;99.90
21184;DHT22;18176;49.502;11.754;2024-02-28T17:50:57;3.90;99.90
21184;DHT22;18176;49.502;11.754;2024-02-28T17:55:18;3.80;99.90
21184;DHT22;18176;49.502;11.754;2024-02-28T17:59:39;3.70;99.90
21184;DHT22;18176;49.502;11.754;2024-02-28T18:04:01;3.60;99.90
21184;DHT22;18176;49.502;11.754;2024-02-28T18:08:24;3.40;99.90
21184;DHT22;18176;49.502;11.754;2024-02-28T18:12:46;3.30;99.90
21184;DHT22;18176;49.502;11.754;2024-02-28T18:17:06;3.20;99.90
21184;DHT22;18176;49.502;11.754;2024-02-28T18:21:27;3.10;99.90
21184;DHT22;18176;49.502;11.754;2024-02-28T18:25:52;2.90;99.90
21184;DHT22;18176;49.502;11.754;2024-02-28T18:30:13;2.80;99.90
21184;DHT22;18176;49.502;11.754;2024-02-28T18:34:38;2.80;99.90
21184;DHT22;18176;49.502;11.754;2024-02-28T18:38:59;2.70;99.90
21184;DHT22;18176;49.502;11.754;2024-02-28T18:43:23;2.60;99.90
21184;DHT22;18176;49.502;11.754;2024-02-28T18:47:44;2.50;99.90
21184;DHT22;18176;49.502;11.754;2024-02-28T18:52:05;2.40;99.90
21184;DHT22;18176;49.502;11.754;2024-02-28T18:56:26;2.40;99.90
21184;DHT22;18176;49.502;11.754;2024-02-28T19:00:49;2.20;99.90
21184;DHT22;18176;49.502;11.754;2024-02-28T19:05:12;2.10;99.90
21184;DHT22;18176;49.502;11.754;2024-02-28T19:09:33;2.00;99.90
21184;DHT22;18176;49.502;11.754;2024-02-28T19:13:53;1.90;99.90
21184;DHT22;18176;49.502;11.754;2024-02-28T19:18:20;1.90;99.90
21184;DHT22;18176;49.502;11.754;2024-02-28T19:22:42;1.80;99.90
21184;DHT22;18176;49.502;11.754;2024-02-28T19:27:03;1.70;99.90
21184;DHT22;18176;49.502;11.754;2024-02-28T19:31:24;1.70;99.90
21184;DHT22;18176;49.502;11.754;2024-02-28T19:35:47;1.70;99.90
21184;DHT22;18176;49.502;11.754;2024-02-28T19:40:10;1.60;99.90
21184;DHT22;18176;49.502;11.754;2024-02-28T19:44:31;1.70;99.90
21184;DHT22;18176;49.502;11.754;2024-02-28T19:48:52;1.70;99.90
21184;DHT22;18176;49.502;11.754;2024-02-28T19:53:15;1.70;99.90
21184;DHT22;18176;49.502;11.754;2024-02-28T19:57:38;1.70;99.90
21184;DHT22;18176;49.502;11.754;2024-02-28T20:01:59;1.60;99.90
21184;DHT22;18176;49.502;11.754;2024-02-28T20:06:20;1.40;99.90
21184;DHT22;18176;49.502;11.754;2024-02-28T20:10:44;1.30;99.90
21184;DHT22;18176;49.502;11.754;2024-02-28T20:15:06;1.30;99.90
21184;DHT22;18176;49.502;11.754;2024-02-28T20:19:27;1.20;99.90
21184;DHT22;18176;49.502;11.754;2024-02-28T20:23:48;1.10;99.90
21184;DHT22;18176;49.502;11.754;2024-02-28T20:28:12;1.00;99.90
21184;DHT22;18176;49.502;11.754;2024-02-28T20:32:38;0.90;99.90
21184;DHT22;18176;49.502;11.754;2024-02-28T20:36:59;0.90;99.90
21184;DHT22;18176;49.502;11.754;2024-02-28T20:41:20;0.90;99.90
21184;DHT22;18176;49.502;11.754;2024-02-28T20:45:43;0.80;99.90
21184;DHT22;18176;49.502;11.754;2024-02-28T20:50:05;0.80;99.90
21184;DHT22;18176;49.502;11.754;2024-02-28T20:54:27;0.70;99.90
21184;DHT22;18176;49.502;11.754;2024-02-28T20:58:50;0.70;99.90
21184;DHT22;18176;49.502;11.754;2024-02-28T21:03:14;0.60;99.90
21184;DHT22;18176;49.502;11.754;2024-02-28T21:07:35;0.60;99.90
21184;DHT22;18176;49.502;11.754;2024-02-28T21:12:09;0.50;99.90
21184;DHT22;18176;49.502;11.754;2024-02-28T21:16:32;0.50;99.90
21184;DHT22;18176;49.502;11.754;2024-02-28T21:20:56;0.50;99.90
21184;DHT22;18176;49.502;11.754;2024-02-28T21:25:18;0.50;99.90
21184;DHT22;18176;49.502;11.754;2024-02-28T21:29:38;0.50;99.90
21184;DHT22;18176;49.502;11.754;2024-02-28T21:33:59;0.60;99.90
21184;DHT22;18176;49.502;11.754;2024-02-28T21:38:22;0.60;99.90
21184;DHT22;18176;49.502;11.754;2024-02-28T21:42:44;0.70;99.90
21184;DHT22;18176;49.502;11.754;2024-02-28T21:47:05;0.80;99.90
21184;DHT22;18176;49.502;11.754;2024-02-28T21:51:27;1.00;99.90
21184;DHT22;18176;49.502;11.754;2024-02-28T21:55:51;1.10;99.90
21184;DHT22;18176;49.502;11.754;2024-02-28T22:00:12;1.20;99.90
21184;DHT22;18176;49.502;11.754;2024-02-28T22:04:33;1.30;99.90
21184;DHT22;18176;49.502;11.754;2024-02-28T22:08:54;1.40;99.90
21184;DHT22;18176;49.502;11.754;2024-02-28T22:13:20;1.40;99.90
21184;DHT22;18176;49.502;11.754;2024-02-28T22:17:41;1.50;99.90
21184;DHT22;18176;49.502;11.754;2024-02-28T22:22:02;1.50;99.90
21184;DHT22;18176;49.502;11.754;2024-02-28T22:26:24;1.60;99.90
21184;DHT22;18176;49.502;11.754;2024-02-28T22:30:47;1.70;99.90
21184;DHT22;18176;49.502;11.754;2024-02-28T22:35:08;1.80;99.90
21184;DHT22;18176;49.502;11.754;2024-02-28T22:39:31;1.80;99.90
21184;DHT22;18176;49.502;11.754;2024-02-28T22:43:51;1.90;99.90
21184;DHT22;18176;49.502;11.754;2024-02-28T22:48:15;2.00;99.90
21184;DHT22;18176;49.502;11.754;2024-02-28T22:52:36;2.10;99.90
21184;DHT22;18176;49.502;11.754;2024-02-28T22:56:57;2.20;99.90
21184;DHT22;18176;49.502;11.754;2024-02-28T23:01:17;2.20;99.90
21184;DHT22;18176;49.502;11.754;2024-02-28T23:05:41;2.20;99.90
21184;DHT22;18176;49.502;11.754;2024-02-28T23:10:02;2.20;99.90
21184;DHT22;18176;49.502;11.754;2024-02-28T23:14:23;2.20;99.90
21184;DHT22;18176;49.502;11.754;2024-02-28T23:18:44;2.20;99.90
21184;DHT22;18176;49.502;11.754;2024-02-28T23:23:08;2.20;99.90
21184;DHT22;18176;49.502;11.754;2024-02-28T23:27:29;2.10;99.90
21184;DHT22;18176;49.502;11.754;2024-02-28T23:31:50;2.20;99.90
21184;DHT22;18176;49.502;11.754;2024-02-28T23:36:11;2.10;99.90
21184;DHT22;18176;49.502;11.754;2024-02-28T23:40:35;2.10;99.90
21184;DHT22;18176;49.502;11.754;2024-02-28T23:44:56;2.20;99.90
21184;DHT22;18176;49.502;11.754;2024-02-28T23:49:17;2.30;99.90
21184;DHT22;18176;49.502;11.754;2024-02-28T23:53:37;2.30;99.90
21184;DHT22;18176;49.502;11.754;2024-02-28T23:58:01;2.30;99.90
